Time;durP1;ratioP1;P1;durP2;ratioP2;P2;SDS_P1;SDS_P2;PMS_P1;PMS_P2;Temp;Humidity;BMP_temperature;BMP_pressure;BME280_temperature;BME280_humidity;BME280_pressure;Samples;Min_cycle;Max_cycle;Signal;HPM_P1;HPM_P2
2022/10/05 00:01:33;;;;;;;10.80;5.25;;;12.20;99.90;;;;;;5021745;28;20034;-51
2022/10/05 00:04:14;;;;;;;5.88;4.70;;;12.20;99.90;;;;;;4995100;28;20038;-50
2022/10/05 00:06:41;;;;;;;8.95;5.03;;;12.20;99.90;;;;;;5021642;28;20030;-47
2022/10/05 00:09:20;;;;;;;5.60;4.35;;;12.20;99.90;;;;;;5020764;28;20032;-48
2022/10/05 00:11:46;;;;;;;9.27;5.47;;;12.20;99.90;;;;;;5017270;28;20030;-48
2022/10/05 00:14:29;;;;;;;9.48;4.47;;;12.20;99.90;;;;;;5021142;28;20036;-47
2022/10/05 00:16:59;;;;;;;6.10;5.10;;;12.30;99.90;;;;;;5019488;28;20515;-48
2022/10/05 00:19:33;;;;;;;11.02;5.18;;;12.30;99.90;;;;;;5007249;28;20061;-49
2022/10/05 00:22:07;;;;;;;7.70;4.80;;;12.30;99.90;;;;;;5012198;28;20488;-47
2022/10/05 00:24:33;;;;;;;7.07;4.38;;;12.40;99.90;;;;;;5020147;28;20065;-49
2022/10/05 00:27:09;;;;;;;6.63;4.45;;;12.40;99.90;;;;;;5020960;28;20459;-46
2022/10/05 00:29:34;;;;;;;6.20;4.67;;;12.50;99.90;;;;;;5017308;28;20022;-47
2022/10/05 00:32:00;;;;;;;7.03;4.30;;;12.50;99.90;;;;;;5014539;28;20376;-47
2022/10/05 00:34:25;;;;;;;5.80;4.15;;;12.50;99.90;;;;;;5026509;28;20033;-49
2022/10/05 00:36:51;;;;;;;13.32;5.43;;;12.50;99.90;;;;;;5022519;28;20030;-46
2022/10/05 00:39:17;;;;;;;7.55;4.80;;;12.40;99.90;;;;;;5022925;28;20091;-47
2022/10/05 00:41:42;;;;;;;7.07;5.18;;;12.50;99.90;;;;;;5016113;28;20468;-46
2022/10/05 00:44:28;;;;;;;4.72;4.03;;;12.50;99.90;;;;;;5005142;28;20068;-46
2022/10/05 00:47:06;;;;;;;7.93;4.30;;;12.50;99.90;;;;;;5000334;28;20025;-47
2022/10/05 00:49:56;;;;;;;8.57;5.07;;;12.50;99.90;;;;;;5019125;28;20028;-48
2022/10/05 00:52:34;;;;;;;9.60;4.72;;;12.60;99.90;;;;;;5017883;28;20555;-46
2022/10/05 00:55:24;;;;;;;6.82;4.80;;;12.60;99.90;;;;;;5062333;22;20453;-48
2022/10/05 00:58:18;;;;;;;7.50;5.15;;;12.60;99.90;;;;;;5041837;28;20033;-50
2022/10/05 01:01:08;;;;;;;8.38;4.88;;;12.60;99.90;;;;;;5040570;28;20124;-52
2022/10/05 01:03:59;;;;;;;8.32;5.43;;;12.60;99.90;;;;;;5037715;28;20072;-50
2022/10/05 01:07:06;;;;;;;10.43;5.38;;;12.60;99.90;;;;;;5030871;28;20017;-50
2022/10/05 01:09:54;;;;;;;8.98;4.65;;;12.60;99.90;;;;;;5049224;28;20059;-49
2022/10/05 01:12:41;;;;;;;7.43;5.03;;;12.70;99.90;;;;;;5039543;28;20028;-53
2022/10/05 01:15:28;;;;;;;6.20;3.53;;;12.70;99.90;;;;;;5047404;28;20032;-55
2022/10/05 01:17:54;;;;;;;5.57;4.40;;;12.70;99.90;;;;;;5024337;28;20116;-51
2022/10/05 01:20:19;;;;;;;6.22;4.63;;;12.70;99.90;;;;;;5030420;28;20171;-49
2022/10/05 01:23:00;;;;;;;7.43;5.15;;;12.70;99.90;;;;;;5044174;28;20044;-55
2022/10/05 01:25:31;;;;;;;5.68;4.28;;;12.70;99.90;;;;;;5039030;28;20037;-51
2022/10/05 01:28:07;;;;;;;6.63;4.88;;;12.70;99.90;;;;;;5047569;28;20098;-55
2022/10/05 01:30:41;;;;;;;7.40;4.70;;;12.70;99.90;;;;;;5038633;28;20021;-50
2022/10/05 01:33:15;;;;;;;7.53;4.97;;;12.70;99.90;;;;;;5043983;28;20338;-50
2022/10/05 01:35:59;;;;;;;7.78;5.13;;;12.70;99.90;;;;;;5045343;28;20115;-50
2022/10/05 01:38:36;;;;;;;7.53;5.20;;;12.70;99.90;;;;;;5018804;28;20017;-50
2022/10/05 01:41:11;;;;;;;8.20;4.60;;;12.70;99.90;;;;;;5047157;28;20376;-53
2022/10/05 01:43:45;;;;;;;6.15;4.60;;;12.70;99.90;;;;;;5033632;28;20103;-50
2022/10/05 01:46:20;;;;;;;7.93;5.07;;;12.70;99.90;;;;;;5029806;28;20021;-50
2022/10/05 01:48:54;;;;;;;7.07;4.75;;;12.70;99.90;;;;;;5049213;28;20067;-49
2022/10/05 01:51:36;;;;;;;6.00;5.15;;;12.70;99.90;;;;;;5029509;28;20024;-49
2022/10/05 01:54:27;;;;;;;7.60;4.65;;;12.70;99.90;;;;;;5044416;28;20091;-51
2022/10/05 01:57:12;;;;;;;7.07;5.05;;;12.70;99.90;;;;;;5046082;28;20383;-49
2022/10/05 01:59:56;;;;;;;7.10;5.33;;;12.70;99.90;;;;;;5039095;28;20028;-53
2022/10/05 02:02:24;;;;;;;8.10;4.25;;;12.70;99.90;;;;;;5035269;28;20025;-52
2022/10/05 02:04:55;;;;;;;10.82;5.47;;;12.70;99.90;;;;;;5045377;28;20047;-52
2022/10/05 02:07:53;;;;;;;8.52;4.80;;;12.70;99.90;;;;;;5044802;28;20028;-51
2022/10/05 02:10:27;;;;;;;6.43;4.55;;;12.70;99.90;;;;;;5036163;28;20041;-50
2022/10/05 02:12:59;;;;;;;7.35;5.10;;;12.70;99.90;;;;;;5035859;28;20206;-49
2022/10/05 02:15:33;;;;;;;9.13;4.93;;;12.70;99.90;;;;;;5045054;28;20074;-50
2022/10/05 02:18:06;;;;;;;8.45;5.63;;;12.70;99.90;;;;;;5039520;28;20159;-49
2022/10/05 02:20:36;;;;;;;7.70;5.13;;;12.60;99.90;;;;;;5047635;28;20479;-50
2022/10/05 02:23:08;;;;;;;7.03;5.10;;;12.70;99.90;;;;;;5043550;28;20025;-50
2022/10/05 02:25:37;;;;;;;7.55;5.50;;;12.70;99.90;;;;;;5045077;28;20653;-52
2022/10/05 02:28:15;;;;;;;7.85;5.32;;;12.70;99.90;;;;;;5041556;28;20070;-54
2022/10/05 02:30:47;;;;;;;10.45;5.00;;;12.70;99.90;;;;;;5035451;28;20039;-48
2022/10/05 02:33:22;;;;;;;6.40;4.78;;;12.70;99.90;;;;;;5047337;28;20036;-49
2022/10/05 02:35:47;;;;;;;7.00;5.18;;;12.70;99.90;;;;;;5041849;28;20029;-53
2022/10/05 02:38:29;;;;;;;7.10;4.93;;;12.70;99.90;;;;;;5042131;28;20045;-51
2022/10/05 02:41:16;;;;;;;11.18;5.55;;;12.70;99.90;;;;;;5022979;28;20036;-48
2022/10/05 02:44:00;;;;;;;8.88;5.13;;;12.70;99.90;;;;;;5022522;28;20024;-50
2022/10/05 02:46:44;;;;;;;7.95;5.72;;;12.70;99.90;;;;;;5030298;28;20025;-49
2022/10/05 02:49:19;;;;;;;8.13;5.22;;;12.70;99.90;;;;;;5041386;28;20480;-49
2022/10/05 02:52:17;;;;;;;6.88;4.68;;;12.60;99.90;;;;;;5037416;28;20029;-49
2022/10/05 02:55:09;;;;;;;7.50;5.00;;;12.60;99.90;;;;;;4999502;28;20123;-49
2022/10/05 02:57:56;;;;;;;8.73;5.00;;;12.60;99.90;;;;;;5036002;28;20056;-50
2022/10/05 03:00:23;;;;;;;7.15;5.20;;;12.60;99.90;;;;;;5030538;28;20035;-51
2022/10/05 03:03:05;;;;;;;10.02;5.13;;;12.60;99.90;;;;;;5037144;28;20029;-49
2022/10/05 03:05:53;;;;;;;7.40;4.40;;;12.60;99.90;;;;;;5041016;28;20017;-49
2022/10/05 03:08:40;;;;;;;8.75;4.97;;;12.60;99.90;;;;;;5019841;28;20078;-49
2022/10/05 03:11:24;;;;;;;6.63;5.35;;;12.60;99.90;;;;;;5039508;28;20110;-49
2022/10/05 03:13:56;;;;;;;11.15;5.70;;;12.60;99.90;;;;;;5034275;28;20036;-49
2022/10/05 03:16:42;;;;;;;6.25;4.60;;;12.60;99.90;;;;;;5043088;28;20119;-49
2022/10/05 03:19:14;;;;;;;8.10;4.78;;;12.60;99.90;;;;;;5039382;28;20029;-49
2022/10/05 03:21:42;;;;;;;8.30;5.13;;;12.60;99.90;;;;;;5018952;28;20052;-49
2022/10/05 03:24:26;;;;;;;6.72;5.00;;;12.60;99.90;;;;;;5042255;28;20024;-49
2022/10/05 03:27:00;;;;;;;5.05;4.03;;;12.60;99.90;;;;;;5037277;28;20064;-50
2022/10/05 03:29:41;;;;;;;7.13;4.75;;;12.60;99.90;;;;;;5041108;28;20021;-49
2022/10/05 03:32:16;;;;;;;8.15;5.80;;;12.60;99.90;;;;;;5039073;28;20041;-49
2022/10/05 03:35:10;;;;;;;6.43;5.07;;;12.60;99.90;;;;;;5039715;28;20547;-49
2022/10/05 03:37:40;;;;;;;9.43;5.40;;;12.70;99.90;;;;;;5032947;28;20112;-49
2022/10/05 03:40:19;;;;;;;6.45;5.35;;;12.60;99.90;;;;;;5038227;28;20017;-48
2022/10/05 03:43:09;;;;;;;6.47;4.55;;;12.70;99.90;;;;;;5034698;28;20155;-49
2022/10/05 03:46:05;;;;;;;7.78;4.82;;;12.60;99.90;;;;;;5031089;28;20021;-49
2022/10/05 03:48:48;;;;;;;8.43;5.30;;;12.60;99.90;;;;;;5029302;28;20037;-49
2022/10/05 03:51:43;;;;;;;10.77;5.38;;;12.60;99.90;;;;;;5030593;28;20036;-49
2022/10/05 03:54:16;;;;;;;9.00;5.82;;;12.60;99.90;;;;;;5016574;28;20056;-49
2022/10/05 03:56:55;;;;;;;8.20;5.35;;;12.60;99.90;;;;;;5041550;28;20036;-49
2022/10/05 03:59:39;;;;;;;8.90;5.60;;;12.60;99.90;;;;;;5038357;28;20399;-50
2022/10/05 04:02:25;;;;;;;8.23;5.03;;;12.60;99.90;;;;;;5037227;28;20040;-54
2022/10/05 04:05:02;;;;;;;5.73;5.13;;;12.60;99.90;;;;;;5038462;28;20037;-49
2022/10/05 04:07:58;;;;;;;9.90;5.15;;;12.60;99.90;;;;;;5038730;28;20092;-48
2022/10/05 04:10:36;;;;;;;7.63;5.13;;;12.60;99.90;;;;;;5031088;28;20013;-50
2022/10/05 04:13:35;;;;;;;7.28;5.35;;;12.60;99.90;;;;;;5031322;28;20168;-51
2022/10/05 04:16:12;;;;;;;9.05;5.32;;;12.60;99.90;;;;;;5039939;28;20104;-52
2022/10/05 04:18:46;;;;;;;7.15;5.45;;;12.60;99.90;;;;;;5030095;28;20124;-52
2022/10/05 04:21:30;;;;;;;6.93;5.68;;;12.60;99.90;;;;;;5038503;28;20347;-50
2022/10/05 04:24:10;;;;;;;7.30;5.32;;;12.60;99.90;;;;;;5039285;28;20124;-50
2022/10/05 04:26:53;;;;;;;8.48;5.90;;;12.60;99.90;;;;;;5037203;28;20021;-50
2022/10/05 04:30:00;;;;;;;9.98;5.47;;;12.70;99.90;;;;;;5034077;28;20034;-50
2022/10/05 04:32:44;;;;;;;8.45;5.85;;;12.60;99.90;;;;;;5020653;28;20099;-49
2022/10/05 04:35:31;;;;;;;10.80;5.55;;;12.70;99.90;;;;;;5039198;28;20037;-49
2022/10/05 04:38:22;;;;;;;7.15;5.60;;;12.60;99.90;;;;;;5034631;28;20098;-50
2022/10/05 04:41:25;;;;;;;8.43;5.22;;;12.60;99.90;;;;;;5037781;28;20029;-48
2022/10/05 04:44:03;;;;;;;8.10;5.72;;;12.70;99.90;;;;;;5038562;28;20071;-53
2022/10/05 04:47:00;;;;;;;7.05;5.30;;;12.70;99.90;;;;;;5036455;28;20029;-51
2022/10/05 04:49:41;;;;;;;7.47;5.07;;;12.70;99.90;;;;;;5033974;28;20029;-49
2022/10/05 04:52:42;;;;;;;9.38;5.22;;;12.70;99.90;;;;;;5041479;28;20013;-50
2022/10/05 04:55:19;;;;;;;8.30;5.95;;;12.70;99.90;;;;;;5019435;28;20029;-48
2022/10/05 04:57:59;;;;;;;6.63;5.45;;;12.70;99.90;;;;;;5029902;28;20337;-49
2022/10/05 05:00:36;;;;;;;11.05;6.40;;;12.70;99.90;;;;;;5033273;28;20024;-50
2022/10/05 05:03:33;;;;;;;9.30;5.28;;;12.70;99.90;;;;;;5041105;28;20116;-52
2022/10/05 05:06:03;;;;;;;;;;;12.70;99.90;;;;;;5041127;28;20260;-49
2022/10/05 05:08:52;;;;;;;10.27;6.05;;;12.70;99.90;;;;;;5039116;28;19909;-49
2022/10/05 05:11:40;;;;;;;11.48;6.18;;;12.70;99.90;;;;;;5033083;28;20025;-50
2022/10/05 05:14:33;;;;;;;7.25;6.07;;;12.70;99.90;;;;;;5034722;28;20057;-48
2022/10/05 05:17:17;;;;;;;8.27;5.78;;;12.80;99.90;;;;;;5026944;28;20029;-49
2022/10/05 05:20:11;;;;;;;7.53;5.97;;;12.70;99.90;;;;;;5037160;28;20273;-50
2022/10/05 05:22:49;;;;;;;9.60;6.47;;;12.70;99.90;;;;;;5028621;28;20087;-55
2022/10/05 05:25:44;;;;;;;8.45;5.80;;;12.80;99.90;;;;;;5028451;28;20506;-49
2022/10/05 05:28:09;;;;;;;8.50;5.85;;;12.80;99.90;;;;;;5038214;28;20072;-49
2022/10/05 05:30:47;;;;;;;9.27;6.57;;;12.70;99.90;;;;;;5045351;28;20522;-50
2022/10/05 05:33:22;;;;;;;9.60;5.70;;;12.80;99.90;;;;;;5035910;28;20028;-49
2022/10/05 05:36:09;;;;;;;9.65;5.90;;;12.70;99.90;;;;;;5036488;28;20033;-49
2022/10/05 05:38:59;;;;;;;8.68;6.00;;;12.70;99.90;;;;;;5027194;28;20033;-53
2022/10/05 05:41:39;;;;;;;11.27;7.03;;;12.70;99.90;;;;;;5035832;28;20400;-48
2022/10/05 05:44:25;;;;;;;7.70;5.75;;;12.70;99.90;;;;;;5040735;28;20040;-49
2022/10/05 05:47:11;;;;;;;10.27;6.63;;;12.70;99.90;;;;;;5030835;28;20017;-51
2022/10/05 05:50:07;;;;;;;10.98;7.13;;;12.70;99.90;;;;;;5031733;28;20310;-50
2022/10/05 05:52:47;;;;;;;11.00;6.30;;;12.70;99.90;;;;;;5017511;28;20033;-51
2022/10/05 05:55:19;;;;;;;11.07;6.45;;;12.70;99.90;;;;;;5039601;28;20785;-55
2022/10/05 05:57:52;;;;;;;9.95;7.07;;;12.70;99.90;;;;;;5046532;28;20158;-49
2022/10/05 06:00:25;;;;;;;12.35;7.25;;;12.70;99.90;;;;;;5033638;28;20118;-55
2022/10/05 06:03:15;;;;;;;9.27;6.80;;;12.80;99.90;;;;;;5039014;28;20030;-49
2022/10/05 06:06:00;;;;;;;9.30;7.25;;;12.80;99.90;;;;;;5041384;28;20017;-48
2022/10/05 06:08:28;;;;;;;8.20;6.85;;;12.70;99.90;;;;;;5030786;28;20013;-49
2022/10/05 06:11:27;;;;;;;10.88;7.40;;;12.70;99.90;;;;;;5041158;28;20025;-50
2022/10/05 06:13:58;;;;;;;10.10;7.05;;;12.80;99.90;;;;;;5023924;28;20043;-48
2022/10/05 06:16:39;;;;;;;9.95;6.72;;;12.70;99.90;;;;;;5041901;28;20021;-47
2022/10/05 06:19:12;;;;;;;10.73;7.60;;;12.80;99.90;;;;;;5039901;28;20017;-49
2022/10/05 06:21:45;;;;;;;9.82;7.72;;;12.80;99.90;;;;;;5043355;28;20054;-50
2022/10/05 06:24:25;;;;;;;9.35;7.55;;;12.80;99.90;;;;;;5038911;28;20029;-48
2022/10/05 06:27:13;;;;;;;11.05;7.25;;;12.80;99.90;;;;;;5027836;28;20383;-49
2022/10/05 06:30:12;;;;;;;8.77;7.25;;;12.80;99.90;;;;;;5020514;28;20025;-54
2022/10/05 06:33:01;;;;;;;8.88;7.22;;;12.80;99.90;;;;;;5018523;28;20045;-49
2022/10/05 06:35:45;;;;;;;12.93;7.50;;;12.80;99.90;;;;;;5026875;28;20086;-48
2022/10/05 06:38:25;;;;;;;13.10;7.45;;;12.80;99.90;;;;;;5040374;28;20024;-48
2022/10/05 06:41:26;;;;;;;10.15;6.65;;;12.90;99.90;;;;;;5040954;28;20108;-51
2022/10/05 06:44:08;;;;;;;9.93;7.15;;;12.90;99.90;;;;;;4968145;28;20031;-49
2022/10/05 06:46:48;;;;;;;10.00;7.20;;;12.90;99.90;;;;;;5034086;28;20053;-51
2022/10/05 06:49:28;;;;;;;9.77;7.70;;;13.00;99.90;;;;;;5035775;28;20100;-50
2022/10/05 06:52:15;;;;;;;10.80;7.45;;;13.00;99.90;;;;;;5038521;28;20026;-49
2022/10/05 06:55:02;;;;;;;12.75;7.30;;;13.00;99.90;;;;;;5036570;28;20040;-51
2022/10/05 06:57:35;;;;;;;11.63;6.80;;;13.00;99.90;;;;;;5058237;22;20045;-49
2022/10/05 07:00:19;;;;;;;9.38;6.97;;;13.10;99.90;;;;;;5043719;28;20442;-48
2022/10/05 07:02:48;;;;;;;16.45;7.47;;;13.10;99.90;;;;;;5032477;28;20026;-47
2022/10/05 07:05:53;;;;;;;7.80;6.57;;;13.10;99.90;;;;;;5042304;28;20021;-48
2022/10/05 07:08:29;;;;;;;8.55;7.30;;;13.10;99.90;;;;;;5027255;28;20025;-48
2022/10/05 07:11:01;;;;;;;9.73;6.37;;;13.10;99.90;;;;;;5020727;28;20498;-47
2022/10/05 07:14:10;;;;;;;8.93;6.72;;;13.10;99.90;;;;;;5040782;28;20295;-47
2022/10/05 07:16:36;;;;;;;9.38;7.10;;;13.20;99.90;;;;;;5036192;28;20031;-48
2022/10/05 07:19:26;;;;;;;8.88;6.28;;;13.20;99.90;;;;;;5030209;28;20112;-47
2022/10/05 07:22:29;;;;;;;9.15;6.63;;;13.30;99.90;;;;;;5027784;28;20029;-47
2022/10/05 07:25:17;;;;;;;12.18;7.13;;;13.30;99.90;;;;;;5003295;28;20053;-48
2022/10/05 07:27:50;;;;;;;12.52;7.55;;;13.30;99.90;;;;;;5035391;28;20027;-46
2022/10/05 07:30:16;;;;;;;9.15;6.38;;;13.30;99.90;;;;;;5031774;28;20036;-48
2022/10/05 07:32:44;;;;;;;10.02;7.28;;;13.40;99.90;;;;;;5032072;28;20112;-49
2022/10/05 07:38:34;;;;;;;11.00;7.35;;;13.40;99.90;;;;;;5024205;28;20033;-47
2022/10/05 07:41:30;;;;;;;10.13;7.20;;;13.50;99.90;;;;;;5016192;28;20044;-50
2022/10/05 07:44:05;;;;;;;9.98;7.30;;;13.50;99.90;;;;;;5013306;28;20022;-48
2022/10/05 07:46:55;;;;;;;11.02;7.82;;;13.50;99.90;;;;;;5034210;28;20131;-50
2022/10/05 07:49:33;;;;;;;9.85;7.13;;;13.50;99.90;;;;;;5026345;28;20487;-47
2022/10/05 07:52:02;;;;;;;11.93;8.13;;;13.50;99.90;;;;;;5036480;28;20480;-49
2022/10/05 07:54:52;;;;;;;10.98;7.68;;;13.50;99.90;;;;;;5033240;28;20071;-46
2022/10/05 07:57:38;;;;;;;11.13;7.32;;;13.50;99.90;;;;;;5038863;28;20385;-50
2022/10/05 08:00:05;;;;;;;10.65;7.90;;;13.50;99.90;;;;;;5031045;28;20446;-46
2022/10/05 08:02:43;;;;;;;11.52;7.93;;;13.50;99.90;;;;;;5019394;28;20025;-50
2022/10/05 08:05:12;;;;;;;10.77;6.97;;;13.50;99.90;;;;;;5043206;28;20056;-49
2022/10/05 08:07:39;;;;;;;8.77;6.53;;;13.60;99.90;;;;;;5036664;28;20032;-46
2022/10/05 08:10:15;;;;;;;10.48;7.40;;;13.60;99.90;;;;;;5044065;28;20096;-46
2022/10/05 08:13:08;;;;;;;9.18;6.82;;;13.60;99.90;;;;;;5036454;28;20025;-49
2022/10/05 08:15:41;;;;;;;9.80;7.35;;;13.70;99.90;;;;;;5033277;28;20022;-47
2022/10/05 08:18:15;;;;;;;12.35;6.88;;;13.80;99.90;;;;;;5043183;28;20652;-47
2022/10/05 08:20:48;;;;;;;7.90;6.78;;;13.80;99.90;;;;;;5043566;28;20028;-46
2022/10/05 08:23:49;;;;;;;10.63;7.07;;;13.90;99.90;;;;;;5031586;28;20022;-51
2022/10/05 08:26:37;;;;;;;8.27;5.80;;;13.90;99.90;;;;;;5038648;28;20044;-46
2022/10/05 08:29:38;;;;;;;10.65;6.60;;;13.90;99.90;;;;;;5042231;28;20044;-47
2022/10/05 08:32:11;;;;;;;7.90;7.10;;;14.00;99.90;;;;;;5023043;28;20029;-46
2022/10/05 08:34:56;;;;;;;9.27;6.63;;;14.00;99.90;;;;;;5043276;28;20080;-47
2022/10/05 08:37:38;;;;;;;9.93;7.22;;;14.10;99.90;;;;;;5030339;28;20055;-47
2022/10/05 08:40:35;;;;;;;10.40;6.70;;;14.10;99.90;;;;;;5040303;28;20033;-46
2022/10/05 08:43:27;;;;;;;12.25;7.13;;;14.10;99.90;;;;;;5042562;28;20108;-49
2022/10/05 08:46:20;;;;;;;8.05;6.45;;;14.20;99.90;;;;;;5028138;28;20017;-47
2022/10/05 08:48:56;;;;;;;9.75;6.63;;;14.20;99.90;;;;;;5036387;28;20072;-46
2022/10/05 08:51:49;;;;;;;10.57;7.00;;;14.10;99.90;;;;;;5017664;28;20022;-46
2022/10/05 08:54:45;;;;;;;8.07;6.45;;;14.10;99.90;;;;;;5028411;28;20133;-47
2022/10/05 08:57:32;;;;;;;8.77;7.00;;;14.20;99.90;;;;;;5043139;28;20029;-48
2022/10/05 09:00:15;;;;;;;11.90;7.10;;;14.20;99.90;;;;;;5042451;28;20147;-47
2022/10/05 09:02:43;;;;;;;8.57;6.43;;;14.30;99.90;;;;;;5035561;28;20220;-46
2022/10/05 09:05:46;;;;;;;10.00;6.45;;;14.40;99.90;;;;;;5046284;28;20036;-53
2022/10/05 09:08:40;;;;;;;11.88;7.30;;;14.50;99.90;;;;;;5042954;28;20552;-46
2022/10/05 09:11:36;;;;;;;9.75;6.82;;;14.60;99.90;;;;;;5042566;28;20020;-46
2022/10/05 09:14:25;;;;;;;7.77;6.90;;;14.60;99.90;;;;;;5025089;28;20032;-47
2022/10/05 09:17:15;;;;;;;9.50;6.80;;;14.70;99.90;;;;;;5042981;28;20260;-48
2022/10/05 09:19:58;;;;;;;9.35;6.53;;;14.80;99.90;;;;;;5035235;28;20029;-46
2022/10/05 09:22:55;;;;;;;9.40;7.10;;;14.90;99.90;;;;;;5034323;28;20025;-48
2022/10/05 09:25:30;;;;;;;;;;;15.00;99.90;;;;;;5036489;28;20070;-46
2022/10/05 09:28:01;;;;;;;8.95;6.65;;;15.00;99.90;;;;;;5038812;28;20336;-48
2022/10/05 09:30:35;;;;;;;8.02;6.85;;;15.10;99.90;;;;;;5039199;28;20028;-47
2022/10/05 09:33:35;;;;;;;17.55;7.25;;;15.10;99.90;;;;;;5038351;28;20025;-46
2022/10/05 09:36:40;;;;;;;8.00;6.25;;;15.10;99.90;;;;;;5039264;28;20021;-46
2022/10/05 09:39:32;;;;;;;11.40;6.55;;;15.10;99.90;;;;;;5027532;28;20060;-48
2022/10/05 09:42:42;;;;;;;8.23;5.68;;;15.20;99.90;;;;;;5038732;28;20030;-49
2022/10/05 09:45:45;;;;;;;6.82;5.78;;;15.30;99.90;;;;;;5041496;28;20060;-48
2022/10/05 09:48:30;;;;;;;7.38;5.90;;;15.40;99.90;;;;;;5020029;28;20068;-47
2022/10/05 09:51:32;;;;;;;6.60;5.85;;;15.50;99.90;;;;;;5043356;28;20044;-48
2022/10/05 09:54:17;;;;;;;6.38;5.68;;;15.50;99.90;;;;;;5038337;28;20057;-49
2022/10/05 09:57:13;;;;;;;7.10;6.03;;;15.60;99.90;;;;;;5039475;28;20082;-48
2022/10/05 09:59:42;;;;;;;8.00;6.70;;;15.60;99.90;;;;;;5035919;28;20107;-46
2022/10/05 10:02:37;;;;;;;15.48;7.15;;;15.70;99.90;;;;;;5041761;28;20342;-46
2022/10/05 10:05:10;;;;;;;9.65;7.25;;;15.70;99.90;;;;;;5041003;28;20029;-46
2022/10/05 10:07:50;;;;;;;7.53;6.82;;;15.60;99.90;;;;;;5034440;28;20056;-46
2022/10/05 10:10:43;;;;;;;7.00;6.30;;;15.70;99.90;;;;;;5031257;28;20088;-48
2022/10/05 10:13:23;;;;;;;7.97;7.05;;;15.70;99.90;;;;;;5040430;28;20036;-46
2022/10/05 10:16:09;;;;;;;7.18;6.47;;;15.70;99.90;;;;;;5022257;28;20041;-46
2022/10/05 10:19:03;;;;;;;10.82;6.78;;;15.70;99.90;;;;;;5037726;28;20063;-47
2022/10/05 10:22:11;;;;;;;6.75;6.15;;;15.70;99.90;;;;;;5029158;28;20486;-45
2022/10/05 10:24:56;;;;;;;9.45;6.78;;;15.60;99.90;;;;;;5031482;28;20053;-46
2022/10/05 10:27:40;;;;;;;6.90;6.18;;;15.60;99.90;;;;;;5032156;28;20024;-47
2022/10/05 10:30:29;;;;;;;8.13;6.78;;;15.50;99.90;;;;;;5019059;28;20029;-46
2022/10/05 10:33:14;;;;;;;8.35;7.55;;;15.50;99.90;;;;;;5024289;28;20388;-46
2022/10/05 10:36:01;;;;;;;7.28;6.55;;;15.40;99.90;;;;;;5016360;28;20029;-49
2022/10/05 10:38:32;;;;;;;7.65;5.95;;;15.40;99.90;;;;;;5041111;28;20028;-47
2022/10/05 10:41:16;;;;;;;7.97;6.57;;;15.40;99.90;;;;;;5041970;28;20395;-46
2022/10/05 10:44:15;;;;;;;6.32;5.72;;;15.40;99.90;;;;;;5025983;28;20032;-46
2022/10/05 10:47:12;;;;;;;7.88;6.20;;;15.40;99.90;;;;;;5036865;28;20025;-50
2022/10/05 10:49:55;;;;;;;7.32;5.80;;;15.40;99.90;;;;;;5003529;28;20092;-47
2022/10/05 10:53:00;;;;;;;8.70;5.53;;;15.40;99.90;;;;;;5005812;28;20040;-46
2022/10/05 10:55:42;;;;;;;8.23;6.10;;;15.30;99.90;;;;;;5035182;28;20131;-46
2022/10/05 10:58:38;;;;;;;8.77;6.53;;;15.30;99.90;;;;;;5040995;28;20056;-46
2022/10/05 11:01:20;;;;;;;9.27;6.82;;;15.30;99.90;;;;;;5020665;28;20099;-45
2022/10/05 11:04:23;;;;;;;7.63;5.47;;;15.20;99.90;;;;;;5032857;28;20542;-47
2022/10/05 11:07:03;;;;;;;6.28;5.68;;;15.20;99.90;;;;;;5036027;28;20039;-48
2022/10/05 11:09:54;;;;;;;7.13;5.78;;;15.20;99.90;;;;;;5018490;28;20477;-45
2022/10/05 11:13:01;;;;;;;6.97;5.82;;;15.20;99.90;;;;;;5013683;28;20060;-46
2022/10/05 11:15:54;;;;;;;7.82;5.53;;;15.20;99.90;;;;;;5011391;28;20540;-46
2022/10/05 11:18:45;;;;;;;7.07;6.05;;;15.20;99.90;;;;;;5031370;28;20048;-46
2022/10/05 11:21:35;;;;;;;6.88;5.78;;;15.10;99.90;;;;;;5035171;28;20500;-49
2022/10/05 11:24:37;;;;;;;7.53;6.05;;;15.20;99.90;;;;;;5022095;28;20690;-46
2022/10/05 11:27:14;;;;;;;8.18;6.13;;;15.10;99.90;;;;;;5041838;28;20061;-46
2022/10/05 11:30:05;;;;;;;6.32;5.72;;;15.10;99.90;;;;;;5034894;28;20508;-46
2022/10/05 11:32:33;;;;;;;6.57;5.65;;;15.20;99.90;;;;;;5034485;28;20025;-48
2022/10/05 11:35:27;;;;;;;7.05;5.70;;;15.20;99.90;;;;;;5036688;28;20388;-46
2022/10/05 11:38:14;;;;;;;5.65;5.15;;;15.10;99.90;;;;;;5035830;28;20035;-46
2022/10/05 11:41:03;;;;;;;6.55;5.45;;;15.10;99.90;;;;;;5040641;28;20036;-49
2022/10/05 11:43:47;;;;;;;8.48;6.10;;;15.10;99.90;;;;;;5035715;28;20021;-49
2022/10/05 11:46:21;;;;;;;6.47;5.60;;;15.10;99.90;;;;;;5019071;28;20444;-47
2022/10/05 11:49:27;;;;;;;6.30;5.70;;;15.10;99.90;;;;;;5037328;28;20100;-46
2022/10/05 11:52:15;;;;;;;5.35;4.70;;;15.10;99.90;;;;;;5043070;28;20021;-46
2022/10/05 11:55:02;;;;;;;5.07;4.57;;;15.10;99.90;;;;;;5047273;28;20033;-46
2022/10/05 11:57:37;;;;;;;4.97;4.38;;;15.10;99.90;;;;;;5048334;28;20415;-46
2022/10/05 12:00:29;;;;;;;5.50;5.03;;;15.10;99.90;;;;;;5027094;28;20025;-48
2022/10/05 12:03:29;;;;;;;11.23;4.63;;;15.20;99.90;;;;;;5041435;28;20029;-49
2022/10/05 12:06:02;;;;;;;6.47;5.85;;;15.20;99.90;;;;;;5027507;28;20068;-46
2022/10/05 12:08:52;;;;;;;5.03;4.53;;;15.20;99.90;;;;;;5046854;28;20048;-51
2022/10/05 12:11:57;;;;;;;6.13;4.50;;;15.30;99.90;;;;;;5034872;28;20056;-48
2022/10/05 12:14:25;;;;;;;6.43;4.38;;;15.30;99.90;;;;;;5036535;28;20047;-51
2022/10/05 12:17:10;;;;;;;6.40;5.10;;;15.30;99.90;;;;;;5037392;28;20511;-47
2022/10/05 12:19:44;;;;;;;5.03;4.55;;;15.30;99.90;;;;;;5042103;28;20026;-48
2022/10/05 12:22:37;;;;;;;6.18;4.30;;;15.30;99.90;;;;;;5026504;28;20041;-46
2022/10/05 12:25:19;;;;;;;5.18;4.13;;;15.30;99.90;;;;;;5037791;28;20099;-49
2022/10/05 12:27:49;;;;;;;4.57;3.92;;;15.30;99.90;;;;;;5045024;28;20025;-47
2022/10/05 12:30:40;;;;;;;6.18;4.60;;;15.40;99.90;;;;;;5039256;28;20012;-48
2022/10/05 12:33:13;;;;;;;4.60;3.75;;;15.40;99.90;;;;;;5019527;28;20037;-46
2022/10/05 12:36:12;;;;;;;4.60;4.05;;;15.50;99.90;;;;;;5033684;28;20065;-47
2022/10/05 12:39:06;;;;;;;4.75;3.90;;;15.50;99.90;;;;;;5044336;28;20018;-48
2022/10/05 12:42:00;;;;;;;4.90;4.25;;;15.60;99.90;;;;;;5004073;28;20050;-45
2022/10/05 12:44:53;;;;;;;3.70;3.05;;;15.60;99.90;;;;;;5026574;28;20084;-45
2022/10/05 12:47:38;;;;;;;4.75;3.28;;;15.60;99.90;;;;;;5040760;28;20486;-48
2022/10/05 12:50:23;;;;;;;5.15;3.28;;;15.60;99.90;;;;;;5020538;28;20026;-47
2022/10/05 12:52:48;;;;;;;3.17;2.95;;;15.60;99.90;;;;;;5031723;28;20083;-47
2022/10/05 12:55:29;;;;;;;3.60;3.30;;;15.70;99.90;;;;;;5035167;28;20123;-50
2022/10/05 12:58:16;;;;;;;3.70;3.40;;;15.70;99.90;;;;;;5086242;22;20107;-51
2022/10/05 13:01:07;;;;;;;3.17;2.80;;;15.70;99.90;;;;;;5021241;28;20316;-48
2022/10/05 13:03:37;;;;;;;3.47;3.00;;;15.80;99.90;;;;;;5035149;28;20099;-49
2022/10/05 13:06:29;;;;;;;4.32;3.42;;;15.80;99.90;;;;;;5040170;28;20009;-52
2022/10/05 13:09:17;;;;;;;3.55;3.15;;;15.80;99.90;;;;;;5026104;28;20480;-52
2022/10/05 13:11:53;;;;;;;3.17;2.88;;;15.80;99.90;;;;;;5015148;28;20076;-50
2022/10/05 13:14:34;;;;;;;7.32;3.30;;;15.90;99.90;;;;;;5021788;28;20018;-50
2022/10/05 13:17:09;;;;;;;7.63;3.10;;;15.90;99.90;;;;;;5019715;28;20030;-49
2022/10/05 13:19:43;;;;;;;3.40;2.72;;;15.90;99.90;;;;;;5013396;28;20100;-48
2022/10/05 13:22:43;;;;;;;3.22;2.63;;;15.90;99.90;;;;;;5015157;28;20520;-48
2022/10/05 13:25:31;;;;;;;3.85;2.80;;;15.90;99.90;;;;;;5018651;28;20045;-52
2022/10/05 13:28:20;;;;;;;6.53;3.50;;;16.00;99.90;;;;;;5023895;28;20616;-48
2022/10/05 13:31:01;;;;;;;3.95;2.78;;;16.00;99.90;;;;;;5025046;28;20392;-50
2022/10/05 13:33:59;;;;;;;4.10;2.88;;;16.00;99.90;;;;;;5016193;28;20273;-48
2022/10/05 13:36:34;;;;;;;5.00;2.70;;;16.00;99.90;;;;;;5018198;28;20049;-49
2022/10/05 13:39:20;;;;;;;3.50;3.20;;;16.00;99.90;;;;;;5027336;28;20053;-48
2022/10/05 13:42:19;;;;;;;7.18;3.05;;;16.00;99.90;;;;;;5002604;28;20087;-52
2022/10/05 13:45:11;;;;;;;4.22;2.83;;;16.00;99.90;;;;;;5019485;28;20045;-48
2022/10/05 13:47:51;;;;;;;2.85;2.63;;;16.00;99.90;;;;;;5014918;28;20435;-48
2022/10/05 13:50:29;;;;;;;3.55;3.25;;;16.00;99.90;;;;;;5010768;28;20037;-51
2022/10/05 13:53:06;;;;;;;3.83;3.42;;;16.10;99.90;;;;;;5024594;28;20075;-49
2022/10/05 13:55:47;;;;;;;3.38;3.08;;;16.10;99.90;;;;;;4998036;28;20025;-51
2022/10/05 13:58:21;;;;;;;3.40;3.10;;;16.10;99.90;;;;;;5027347;28;20504;-48
2022/10/05 14:00:53;;;;;;;3.05;2.60;;;16.10;99.90;;;;;;5016184;28;20030;-50
2022/10/05 14:03:34;;;;;;;3.00;2.70;;;16.10;99.90;;;;;;5010377;28;20021;-48
2022/10/05 14:06:05;;;;;;;2.83;2.55;;;16.10;99.90;;;;;;5024674;28;20029;-48
2022/10/05 14:08:44;;;;;;;3.30;3.00;;;16.20;99.90;;;;;;5022879;28;20029;-49
2022/10/05 14:11:25;;;;;;;3.55;3.25;;;16.20;99.90;;;;;;5025684;28;20029;-56